PSCTB SBBE-SBMQ
Flight info
| Callsign | PSCTB |
|---|---|
| Flight time | N/A |
| Altitude | 24000 |
| Route | PUDMI |
| Aircraft | BE9L/L-SBDFGRY/SB1 |
Departure
| Time | N/A |
|---|---|
| Airport | Val de Cans/Júlio Cezar Ribeiro International Airport (SBBE) |
Arrival
| Time | 2026-05-05 20:12 |
|---|---|
| Airport | Macapá - Alberto Alcolumbre International Airport (SBMQ) |
| Time | Latitude | Longitude | Altitude | Speed | Heading |
|---|---|---|---|---|---|
| 2026-05-05 19:31 | -0.84900 | -49.20907 | 5969 ft | 232 kts | 304° |
| 2026-05-05 19:31 | -0.83769 | -49.22741 | 5971 ft | 232 kts | 305° |
| 2026-05-05 19:31 | -0.83191 | -49.23675 | 5976 ft | 232 kts | 305° |
| 2026-05-05 19:32 | -0.82331 | -49.25062 | 5968 ft | 232 kts | 305° |
| 2026-05-05 19:32 | -0.81482 | -49.26447 | 5970 ft | 231 kts | 303° |
| 2026-05-05 19:32 | -0.80625 | -49.27824 | 5969 ft | 232 kts | 303° |
| 2026-05-05 19:32 | -0.79661 | -49.29391 | 5974 ft | 231 kts | 304° |
| 2026-05-05 19:33 | -0.78820 | -49.30776 | 5968 ft | 231 kts | 304° |
| 2026-05-05 19:33 | -0.77980 | -49.32161 | 5970 ft | 231 kts | 304° |
| 2026-05-05 19:33 | -0.77182 | -49.33476 | 5975 ft | 231 kts | 304° |
| 2026-05-05 19:33 | -0.76336 | -49.34873 | 5972 ft | 232 kts | 304° |
| 2026-05-05 19:34 | -0.75487 | -49.36273 | 5967 ft | 231 kts | 304° |
| 2026-05-05 19:34 | -0.74651 | -49.37655 | 5979 ft | 231 kts | 304° |
| 2026-05-05 19:34 | -0.73814 | -49.39034 | 5973 ft | 231 kts | 303° |
| 2026-05-05 19:35 | -0.72125 | -49.41827 | 5988 ft | 231 kts | 304° |
| 2026-05-05 19:35 | -0.71372 | -49.43067 | 5980 ft | 231 kts | 304° |
| 2026-05-05 19:35 | -0.70493 | -49.44518 | 5991 ft | 231 kts | 304° |
| 2026-05-05 19:35 | -0.69655 | -49.45902 | 5976 ft | 231 kts | 304° |
| 2026-05-05 19:36 | -0.68818 | -49.47290 | 5977 ft | 231 kts | 304° |
| 2026-05-05 19:36 | -0.67977 | -49.48669 | 5987 ft | 231 kts | 305° |
| 2026-05-05 19:36 | -0.67134 | -49.50063 | 5986 ft | 232 kts | 304° |
| 2026-05-05 19:36 | -0.66289 | -49.51453 | 5999 ft | 232 kts | 304° |
| 2026-05-05 19:37 | -0.65442 | -49.52850 | 5985 ft | 233 kts | 303° |
| 2026-05-05 19:37 | -0.64595 | -49.54250 | 5985 ft | 232 kts | 304° |
| 2026-05-05 19:37 | -0.63765 | -49.55619 | 5979 ft | 232 kts | 303° |
| 2026-05-05 19:37 | -0.62919 | -49.57017 | 5983 ft | 232 kts | 304° |
| 2026-05-05 19:38 | -0.62076 | -49.58408 | 5984 ft | 232 kts | 304° |
| 2026-05-05 19:38 | -0.61234 | -49.59797 | 5985 ft | 232 kts | 304° |
| 2026-05-05 19:38 | -0.60397 | -49.61180 | 5984 ft | 232 kts | 304° |
| 2026-05-05 19:38 | -0.59559 | -49.62560 | 5984 ft | 232 kts | 304° |
| 2026-05-05 19:39 | -0.58712 | -49.63956 | 5982 ft | 232 kts | 304° |
| 2026-05-05 19:39 | -0.57874 | -49.65342 | 5980 ft | 232 kts | 304° |
| 2026-05-05 19:39 | -0.57026 | -49.66739 | 5980 ft | 232 kts | 304° |
| 2026-05-05 19:39 | -0.56278 | -49.67975 | 5978 ft | 232 kts | 304° |
| 2026-05-05 19:40 | -0.55415 | -49.69397 | 5980 ft | 231 kts | 304° |
| 2026-05-05 19:40 | -0.54564 | -49.70801 | 5982 ft | 231 kts | 304° |
| 2026-05-05 19:40 | -0.53726 | -49.72184 | 5985 ft | 230 kts | 304° |
| 2026-05-05 19:40 | -0.52896 | -49.73557 | 5986 ft | 230 kts | 304° |
| 2026-05-05 19:41 | -0.52062 | -49.74931 | 5985 ft | 230 kts | 304° |
| 2026-05-05 19:41 | -0.51224 | -49.76313 | 5983 ft | 230 kts | 304° |
| 2026-05-05 19:41 | -0.50378 | -49.77710 | 5982 ft | 230 kts | 304° |
| 2026-05-05 19:41 | -0.49547 | -49.79083 | 5982 ft | 230 kts | 304° |
| 2026-05-05 19:42 | -0.48712 | -49.80458 | 5983 ft | 230 kts | 304° |
| 2026-05-05 19:42 | -0.47870 | -49.81849 | 5982 ft | 231 kts | 304° |
| 2026-05-05 19:42 | -0.47037 | -49.83223 | 5984 ft | 230 kts | 304° |
| 2026-05-05 19:42 | -0.46195 | -49.84612 | 5984 ft | 230 kts | 304° |
| 2026-05-05 19:43 | -0.45360 | -49.85990 | 5986 ft | 230 kts | 304° |
| 2026-05-05 19:43 | -0.44517 | -49.87373 | 5987 ft | 229 kts | 306° |
| 2026-05-05 19:43 | -0.43716 | -49.88740 | 5981 ft | 232 kts | 291° |
| 2026-05-05 19:43 | -0.43207 | -49.90279 | 5985 ft | 232 kts | 292° |
| 2026-05-05 19:44 | -0.42641 | -49.91805 | 5979 ft | 232 kts | 293° |
| 2026-05-05 19:44 | -0.42047 | -49.93319 | 5982 ft | 232 kts | 294° |
| 2026-05-05 19:44 | -0.41445 | -49.94815 | 5984 ft | 232 kts | 295° |
| 2026-05-05 19:44 | -0.40830 | -49.96320 | 5985 ft | 232 kts | 295° |
| 2026-05-05 19:45 | -0.40209 | -49.97829 | 5985 ft | 232 kts | 295° |
| 2026-05-05 19:45 | -0.39588 | -49.99334 | 5983 ft | 233 kts | 295° |
| 2026-05-05 19:45 | -0.38967 | -50.00828 | 5983 ft | 233 kts | 295° |
| 2026-05-05 19:45 | -0.38346 | -50.02330 | 5982 ft | 233 kts | 295° |
| 2026-05-05 19:46 | -0.37714 | -50.03852 | 5688 ft | 235 kts | 296° |
| 2026-05-05 19:46 | -0.37093 | -50.05342 | 5339 ft | 229 kts | 296° |
| 2026-05-05 19:46 | -0.36479 | -50.06836 | 5008 ft | 230 kts | 295° |
| 2026-05-05 19:46 | -0.35872 | -50.08306 | 4664 ft | 230 kts | 296° |
| 2026-05-05 19:47 | -0.35245 | -50.09805 | 4313 ft | 231 kts | 296° |
| 2026-05-05 19:47 | -0.34657 | -50.11227 | 4340 ft | 214 kts | 295° |
| 2026-05-05 19:47 | -0.34092 | -50.12588 | 4357 ft | 206 kts | 296° |
| 2026-05-05 19:47 | -0.33522 | -50.13964 | 4366 ft | 218 kts | 296° |
| 2026-05-05 19:48 | -0.32926 | -50.15394 | 4365 ft | 225 kts | 296° |
| 2026-05-05 19:48 | -0.32315 | -50.16872 | 4361 ft | 222 kts | 296° |
| 2026-05-05 19:48 | -0.31729 | -50.18286 | 4364 ft | 221 kts | 296° |
| 2026-05-05 19:48 | -0.31125 | -50.19740 | 4365 ft | 225 kts | 296° |
| 2026-05-05 19:49 | -0.30516 | -50.21206 | 4364 ft | 228 kts | 296° |
| 2026-05-05 19:49 | -0.29906 | -50.22674 | 4364 ft | 229 kts | 295° |
| 2026-05-05 19:49 | -0.29285 | -50.24173 | 4364 ft | 230 kts | 295° |
| 2026-05-05 19:49 | -0.28663 | -50.25672 | 4363 ft | 231 kts | 296° |
| 2026-05-05 19:50 | -0.28047 | -50.27158 | 4363 ft | 230 kts | 296° |
| 2026-05-05 19:50 | -0.27425 | -50.28659 | 4363 ft | 230 kts | 296° |
| 2026-05-05 19:50 | -0.26809 | -50.30141 | 4364 ft | 230 kts | 296° |
| 2026-05-05 19:50 | -0.26190 | -50.31632 | 4363 ft | 230 kts | 295° |
| 2026-05-05 19:51 | -0.25580 | -50.33106 | 4364 ft | 230 kts | 295° |
| 2026-05-05 19:51 | -0.24965 | -50.34592 | 4364 ft | 230 kts | 296° |
| 2026-05-05 19:51 | -0.24341 | -50.36094 | 4364 ft | 230 kts | 296° |
| 2026-05-05 19:51 | -0.23724 | -50.37576 | 4364 ft | 230 kts | 295° |
| 2026-05-05 19:52 | -0.23104 | -50.39075 | 4364 ft | 230 kts | 296° |
| 2026-05-05 19:52 | -0.22492 | -50.40548 | 4363 ft | 230 kts | 296° |
| 2026-05-05 19:52 | -0.21868 | -50.42044 | 4362 ft | 230 kts | 296° |
| 2026-05-05 19:52 | -0.21252 | -50.43531 | 4363 ft | 230 kts | 296° |
| 2026-05-05 19:53 | -0.20637 | -50.45012 | 4363 ft | 230 kts | 296° |
| 2026-05-05 19:53 | -0.20021 | -50.46496 | 4362 ft | 230 kts | 296° |
| 2026-05-05 19:53 | -0.19404 | -50.47985 | 4363 ft | 230 kts | 296° |
| 2026-05-05 19:53 | -0.18783 | -50.49480 | 4364 ft | 230 kts | 296° |
| 2026-05-05 19:54 | -0.18191 | -50.50904 | 4364 ft | 230 kts | 296° |
| 2026-05-05 19:54 | -0.17575 | -50.52390 | 4364 ft | 230 kts | 296° |
| 2026-05-05 19:54 | -0.16954 | -50.53889 | 4362 ft | 230 kts | 296° |
| 2026-05-05 19:54 | -0.16342 | -50.55360 | 4363 ft | 230 kts | 296° |
| 2026-05-05 19:55 | -0.15721 | -50.56861 | 4364 ft | 230 kts | 296° |
| 2026-05-05 19:55 | -0.15108 | -50.58337 | 4363 ft | 230 kts | 296° |
| 2026-05-05 19:55 | -0.14489 | -50.59829 | 4363 ft | 230 kts | 296° |
| 2026-05-05 19:55 | -0.13865 | -50.61335 | 4348 ft | 230 kts | 296° |
| 2026-05-05 19:56 | -0.13271 | -50.62772 | 4358 ft | 230 kts | 296° |
| 2026-05-05 19:56 | -0.12662 | -50.64245 | 4363 ft | 230 kts | 296° |
| 2026-05-05 19:56 | -0.12046 | -50.65727 | 4361 ft | 230 kts | 296° |
| 2026-05-05 19:56 | -0.11430 | -50.67215 | 4358 ft | 230 kts | 296° |
| 2026-05-05 19:57 | -0.10811 | -50.68706 | 4361 ft | 230 kts | 296° |
| 2026-05-05 19:57 | -0.10208 | -50.70158 | 4361 ft | 230 kts | 296° |
| 2026-05-05 19:57 | -0.09588 | -50.71655 | 4364 ft | 230 kts | 296° |
| 2026-05-05 19:57 | -0.08972 | -50.73135 | 4366 ft | 230 kts | 296° |
| 2026-05-05 19:58 | -0.08364 | -50.74606 | 4362 ft | 230 kts | 295° |
| 2026-05-05 19:58 | -0.07747 | -50.76092 | 4363 ft | 230 kts | 296° |
| 2026-05-05 19:58 | -0.07136 | -50.77566 | 4361 ft | 230 kts | 296° |
| 2026-05-05 19:58 | -0.06520 | -50.79046 | 4363 ft | 230 kts | 296° |
| 2026-05-05 19:59 | -0.05901 | -50.80545 | 4366 ft | 230 kts | 296° |
| 2026-05-05 19:59 | -0.05598 | -50.81272 | 4369 ft | 230 kts | 296° |
| 2026-05-05 19:59 | -0.05242 | -50.82129 | 4367 ft | 229 kts | 296° |
| 2026-05-05 19:59 | -0.04625 | -50.83617 | 4369 ft | 229 kts | 296° |
| 2026-05-05 20:00 | -0.04007 | -50.85104 | 4372 ft | 229 kts | 296° |
| 2026-05-05 20:00 | -0.03413 | -50.86581 | 4370 ft | 230 kts | 292° |
| 2026-05-05 20:00 | -0.03306 | -50.88193 | 4308 ft | 237 kts | 263° |
| 2026-05-05 20:00 | -0.03714 | -50.89766 | 3948 ft | 229 kts | 253° |
| 2026-05-05 20:01 | -0.04215 | -50.91256 | 3560 ft | 218 kts | 252° |
| 2026-05-05 20:01 | -0.04698 | -50.92644 | 3274 ft | 205 kts | 252° |
| 2026-05-05 20:01 | -0.05168 | -50.93985 | 3005 ft | 212 kts | 252° |
| 2026-05-05 20:01 | -0.05654 | -50.95359 | 3021 ft | 205 kts | 252° |
| 2026-05-05 20:02 | -0.06144 | -50.96753 | 3045 ft | 217 kts | 252° |
| 2026-05-05 20:02 | -0.06624 | -50.98116 | 3051 ft | 224 kts | 252° |
| 2026-05-05 20:02 | -0.07195 | -50.99730 | 3043 ft | 226 kts | 252° |
| 2026-05-05 20:02 | -0.07716 | -51.01203 | 3037 ft | 217 kts | 252° |
| 2026-05-05 20:03 | -0.08217 | -51.02622 | 3039 ft | 217 kts | 252° |
| 2026-05-05 20:03 | -0.08732 | -51.04083 | 3036 ft | 226 kts | 252° |
| 2026-05-05 20:03 | -0.09257 | -51.05573 | 3027 ft | 231 kts | 252° |
| 2026-05-05 20:03 | -0.09803 | -51.07117 | 3024 ft | 234 kts | 252° |
| 2026-05-05 20:04 | -0.10350 | -51.08666 | 3032 ft | 236 kts | 252° |
| 2026-05-05 20:04 | -0.10901 | -51.10228 | 3042 ft | 238 kts | 252° |
| 2026-05-05 20:04 | -0.11448 | -51.11784 | 3045 ft | 239 kts | 252° |
| 2026-05-05 20:04 | -0.12005 | -51.13359 | 3041 ft | 239 kts | 251° |
| 2026-05-05 20:05 | -0.12565 | -51.14941 | 3039 ft | 239 kts | 252° |
| 2026-05-05 20:05 | -0.13126 | -51.16537 | 2834 ft | 242 kts | 252° |
| 2026-05-05 20:05 | -0.13549 | -51.18102 | 2451 ft | 221 kts | 272° |
| 2026-05-05 20:05 | -0.13055 | -51.19399 | 2090 ft | 193 kts | 317° |
| 2026-05-05 20:06 | -0.11905 | -51.20141 | 1742 ft | 198 kts | 342° |
| 2026-05-05 20:06 | -0.10600 | -51.20565 | 1662 ft | 191 kts | 348° |
| 2026-05-05 20:06 | -0.09307 | -51.20898 | 1658 ft | 184 kts | 350° |
| 2026-05-05 20:06 | -0.08079 | -51.21188 | 1660 ft | 179 kts | 351° |
| 2026-05-05 20:07 | -0.06850 | -51.21468 | 1666 ft | 177 kts | 352° |
| 2026-05-05 20:07 | -0.05645 | -51.21738 | 1661 ft | 175 kts | 352° |
| 2026-05-05 20:07 | -0.04472 | -51.21679 | 1659 ft | 166 kts | 29° |
| 2026-05-05 20:07 | -0.03705 | -51.20836 | 1668 ft | 165 kts | 59° |
| 2026-05-05 20:08 | -0.03084 | -51.19852 | 1656 ft | 166 kts | 57° |
| 2026-05-05 20:08 | -0.02484 | -51.18916 | 1649 ft | 153 kts | 57° |
| 2026-05-05 20:08 | -0.01934 | -51.18059 | 1649 ft | 140 kts | 57° |
| 2026-05-05 20:08 | -0.01405 | -51.17239 | 1670 ft | 138 kts | 57° |
| 2026-05-05 20:09 | -0.00896 | -51.16447 | 1656 ft | 127 kts | 57° |
| 2026-05-05 20:09 | -0.00418 | -51.15704 | 1653 ft | 126 kts | 56° |
| 2026-05-05 20:09 | 0.00061 | -51.14961 | 1649 ft | 126 kts | 56° |
| 2026-05-05 20:09 | 0.00475 | -51.14159 | 1563 ft | 130 kts | 63° |
| 2026-05-05 20:10 | 0.00919 | -51.13406 | 1555 ft | 122 kts | 52° |
| 2026-05-05 20:10 | 0.01391 | -51.12714 | 1437 ft | 121 kts | 57° |
| 2026-05-05 20:10 | 0.01871 | -51.12000 | 1249 ft | 125 kts | 56° |
| 2026-05-05 20:10 | 0.02356 | -51.11277 | 981 ft | 121 kts | 56° |
| 2026-05-05 20:11 | 0.02818 | -51.10597 | 796 ft | 117 kts | 53° |
| 2026-05-05 20:11 | 0.03302 | -51.09929 | 616 ft | 114 kts | 56° |
| 2026-05-05 20:11 | 0.03719 | -51.09273 | 434 ft | 110 kts | 57° |
| 2026-05-05 20:11 | 0.04157 | -51.08611 | 252 ft | 115 kts | 56° |
| 2026-05-05 20:12 | 0.04582 | -51.07957 | 87 ft | 105 kts | 56° |
| 2026-05-05 20:12 | 0.04900 | -51.07476 | 56 ft | 55 kts | 58° |
| 2026-05-05 20:12 | 0.05055 | -51.07238 | 56 ft | 31 kts | 59° |
| 2026-05-05 20:12 | 0.05119 | -51.07136 | 56 ft | 9 kts | 73° |
| 2026-05-05 20:13 | 0.05079 | -51.07087 | 56 ft | 9 kts | 148° |
| 2026-05-05 20:13 | 0.05051 | -51.07046 | 56 ft | 8 kts | 85° |
| 2026-05-05 20:13 | 0.05022 | -51.07014 | 56 ft | 9 kts | 148° |
| 2026-05-05 20:13 | 0.04992 | -51.06994 | 56 ft | 0 kts | 147° |